Data for 04/26/2015

Time Sea-Level Adjusted Pressure Absolute Pressure Temperature Relative Humidity Dew Point   
(mb) (inHg) (mb) (inHg) (C) (F) (%) (C) (F)
00:05 1012 29.88 842 24.86 4.5 40.1 74 0.2 32.4
00:10 1012 29.88 842 24.86 4.5 40.1 74 0.3 32.5
00:15 1012 29.88 842 24.86 4.5 40.1 74 0.3 32.6
00:20 1012 29.88 842 24.86 4.4 39.9 75 0.3 32.6
00:25 1012 29.88 842 24.86 4.4 39.9 74 0.1 32.2
00:30 1012 29.88 842 24.86 4.3 39.8 74 0.1 32.2
00:35 1012 29.88 842 24.86 4.3 39.8 73 -0.1 31.8
00:40 1012 29.88 842 24.86 4.4 39.9 73 -0 31.9
00:45 1012 29.88 841 24.83 4.4 39.9 74 0.1 32.2
00:50 1012 29.88 842 24.86 4.4 40 74 0.2 32.3
00:55 1012 29.88 842 24.86 4.5 40 74 0.3 32.5
01:00 1012 29.88 841 24.83 4.5 40 74 0.3 32.5
01:05 1012 29.88 841 24.83 4.5 40.1 74 0.3 32.6
01:10 1012 29.88 841 24.83 4.5 40 74 0.3 32.5
01:15 1012 29.88 841 24.83 4.5 40.1 74 0.3 32.6
01:20 1012 29.88 841 24.83 4.5 40.1 74 0.3 32.5
01:25 1012 29.88 841 24.83 4.5 40.1 74 0.3 32.6
01:30 1012 29.88 841 24.83 4.5 40.1 73 0.1 32.2
01:35 1012 29.88 841 24.83 4.6 40.3 73 0.2 32.4
01:40 1012 29.88 841 24.83 4.6 40.2 74 0.3 32.5
01:45 1012 29.88 841 24.83 4.5 40.1 75 0.4 32.6
01:50 1012 29.88 842 24.86 4.4 39.9 74 0.2 32.3
01:55 1012 29.88 841 24.83 4.2 39.6 77 0.5 32.8
02:00 1012 29.88 842 24.86 4 39.2 77 0.3 32.5
02:05 1012 29.88 842 24.86 3.9 39 77 0.3 32.5
02:10 1012 29.88 842 24.86 3.8 38.8 77 0.1 32.2
02:15 1012 29.88 842 24.86 3.7 38.7 77 0 32
02:20 1012 29.88 842 24.86 3.7 38.6 77 0 32
02:25 1012 29.88 842 24.86 3.6 38.5 78 0.1 32.2
02:30 1012 29.88 842 24.86 3.5 38.4 78 0.1 32.2
02:35 1012 29.88 842 24.86 3.4 38.2 78 0 32
02:40 1012 29.88 842 24.86 3.4 38.1 78 -0.1 31.9
02:45 1012 29.88 842 24.86 3.4 38.1 79 0 32
02:50 1012 29.88 842 24.86 3.4 38.1 77 -0.2 31.6
02:55 1012 29.88 842 24.86 3.4 38.2 76 -0.4 31.3
03:00 1012 29.88 842 24.86 3.5 38.3 76 -0.4 31.2
03:05 1012 29.88 842 24.86 3.5 38.3 76 -0.4 31.3
03:10 1013 29.91 842 24.86 3.4 38.1 77 -0.3 31.5
03:15 1013 29.91 842 24.86 3.3 37.9 76 -0.5 31.2
03:20 1013 29.91 842 24.86 3.3 37.9 76 -0.4 31.2
03:25 1012 29.88 842 24.86 3.4 38 76 -0.5 31
03:30 1013 29.91 842 24.86 3.4 38.1 76 -0.4 31.2
03:35 1013 29.91 842 24.86 3.4 38 76 -0.5 31.2
03:40 1013 29.91 842 24.86 3.4 38.2 75 -0.7 30.8
03:45 1013 29.91 842 24.86 3.5 38.3 75 -0.5 31
03:50 1013 29.91 842 24.86 3.5 38.4 73 -0.8 30.6
03:55 1013 29.91 842 24.86 3.6 38.5 73 -0.8 30.6
04:00 1013 29.91 842 24.86 3.6 38.6 73 -0.8 30.6
04:05 1013 29.91 842 24.86 3.6 38.6 73 -0.8 30.5
04:10 1013 29.91 842 24.86 3.7 38.6 73 -0.7 30.7
04:15 1013 29.91 842 24.86 3.7 38.7 72 -0.9 30.4
04:20 1013 29.91 842 24.86 3.7 38.7 72 -0.8 30.5
04:25 1013 29.91 842 24.86 3.7 38.7 72 -0.9 30.3
04:30 1013 29.91 842 24.86 3.7 38.6 73 -0.8 30.6
04:35 1013 29.91 842 24.86 3.6 38.4 73 -0.8 30.6
04:40 1013 29.91 842 24.86 3.5 38.2 75 -0.6 31
04:45 1013 29.91 842 24.86 3.4 38 75 -0.7 30.7
04:50 1013 29.91 842 24.86 3.3 38 76 -0.5 31.2
04:55 1013 29.91 842 24.86 3.2 37.8 77 -0.5 31.1
05:00 1013 29.91 843 24.89 3.2 37.7 77 -0.5 31.1
05:05 1013 29.91 843 24.89 3.1 37.5 78 -0.4 31.2
05:10 1014 29.94 843 24.89 3 37.4 78 -0.4 31.2
05:15 1014 29.94 843 24.89 2.9 37.3 79 -0.4 31.3
05:20 1014 29.94 843 24.89 2.8 37.1 81 -0.2 31.7
05:25 1014 29.94 843 24.89 2.7 36.9 81 -0.3 31.5
05:30 1014 29.94 843 24.89 2.7 36.9 81 -0.2 31.7
05:35 1014 29.94 843 24.89 2.7 36.8 81 -0.2 31.6
05:40 1014 29.94 843 24.89 2.7 36.9 80 -0.3 31.4
05:45 1014 29.94 843 24.89 2.7 36.9 81 -0.3 31.5
05:50 1014 29.94 843 24.89 2.7 36.9 81 -0.2 31.7
05:55 1014 29.94 843 24.89 2.7 36.9 81 -0.2 31.7
06:00 1014 29.94 843 24.89 2.7 36.9 81 -0.2 31.6
06:05 1014 29.94 844 24.92 2.7 36.8 82 -0.1 31.9
06:10 1014 29.94 844 24.92 2.6 36.7 81 -0.3 31.5
06:15 1014 29.94 844 24.92 2.6 36.7 82 -0.2 31.7
06:20 1015 29.97 844 24.92 2.6 36.8 82 -0.1 31.8
06:25 1015 29.97 844 24.92 2.6 36.7 82 -0.2 31.6
06:30 1015 29.97 844 24.92 2.5 36.6 83 -0 32
06:35 1015 29.97 844 24.92 2.4 36.4 85 0.1 32.2
06:40 1015 29.97 844 24.92 2.4 36.4 84 -0.1 31.9
06:45 1015 29.97 844 24.92 2.5 36.5 82 -0.2 31.6
06:50 1015 29.97 844 24.92 2.6 36.7 83 -0 31.9
06:55 1015 29.97 844 24.92 2.7 36.8 81 -0.2 31.6
07:00 1015 29.97 844 24.92 2.8 37 81 -0.2 31.7
07:05 1015 29.97 844 24.92 2.8 37.1 80 -0.3 31.5
07:10 1015 29.97 844 24.92 2.9 37.3 80 -0.3 31.5
07:15 1015 29.97 844 24.92 3 37.4 79 -0.3 31.5
07:20 1015 29.97 844 24.92 3 37.4 80 -0.1 31.9
07:25 1015 29.97 845 24.95 2.9 37.3 81 0 32
07:30 1015 29.97 845 24.95 2.9 37.2 81 -0.1 31.8
07:35 1015 29.97 845 24.95 2.9 37.2 80 -0.3 31.5
07:40 1016 30 845 24.95 2.9 37.2 79 -0.4 31.2
07:45 1016 30 845 24.95 2.9 37.3 80 -0.2 31.6
07:50 1016 30 845 24.95 3 37.3 79 -0.3 31.4
07:55 1016 30 845 24.95 3.1 37.5 78 -0.4 31.3
08:00 1016 30 845 24.95 3.1 37.6 80 -0.1 31.8
08:05 1016 30 845 24.95 2.9 37.3 81 -0 32
08:10 1016 30 845 24.95 3.1 37.6 80 -0 31.9
08:15 1016 30 845 24.95 3.4 38 77 -0.2 31.6
08:20 1016 30 845 24.95 3.4 38.1 77 -0.3 31.5
08:25 1016 30 845 24.95 3.4 38.2 77 -0.3 31.5
08:30 1016 30 845 24.95 3.5 38.3 75 -0.4 31.2
08:35 1016 30 845 24.95 3.6 38.4 75 -0.4 31.3
08:40 1016 30 845 24.95 3.7 38.6 74 -0.6 31
08:45 1016 30 845 24.95 3.7 38.7 74 -0.4 31.3
08:50 1016 30 845 24.95 3.8 38.9 74 -0.4 31.2
08:55 1016 30 845 24.95 3.9 39 72 -0.6 30.9
09:00 1016 30 846 24.98 4 39.2 75 -0.1 31.9
09:05 1016 30 846 24.98 3.8 38.9 76 0.1 32.1
09:10 1016 30 846 24.98 3.8 38.9 76 0 32
09:15 1017 30.03 846 24.98 3.8 38.9 76 -0.1 31.8
09:20 1017 30.03 846 24.98 3.9 39 74 -0.3 31.4
09:25 1017 30.03 846 24.98 3.8 38.9 76 -0.1 31.9
09:30 1017 30.03 846 24.98 3.9 39.1 75 -0.1 31.8
09:35 1017 30.03 846 24.98 3.8 38.8 77 0.2 32.3
09:40 1017 30.03 846 24.98 3.7 38.7 78 0.2 32.4
09:45 1017 30.03 846 24.98 3.8 38.8 77 0.1 32.2
09:50 1017 30.03 846 24.98 3.8 38.9 77 0.1 32.2
09:55 1017 30.03 846 24.98 3.8 38.8 76 -0.1 31.9
10:00 1017 30.03 846 24.98 3.9 39.1 77 0.3 32.5
10:05 1017 30.03 846 24.98 3.7 38.6 79 0.3 32.5
10:10 1017 30.03 846 24.98 3.5 38.2 80 0.4 32.7
10:15 1017 30.03 846 24.98 3.4 38 79 0 32.1
10:20 1017 30.03 847 25.01 3.2 37.7 80 0.1 32.1
10:25 1017 30.03 847 25.01 3.2 37.7 81 0.2 32.3
10:30 1017 30.03 847 25.01 3.2 37.7 79 -0 31.9
10:35 1017 30.03 847 25.01 3.1 37.6 80 -0 31.9
10:40 1018 30.06 847 25.01 3.2 37.7 79 -0 31.9
10:45 1018 30.06 847 25.01 3.1 37.6 81 0.2 32.4
10:50 1018 30.06 847 25.01 3.2 37.7 79 -0.1 31.9
10:55 1018 30.06 847 25.01 3.2 37.7 80 0.1 32.1
11:00 1018 30.06 847 25.01 3.3 37.9 79 -0 31.9
11:05 1018 30.06 847 25.01 3.2 37.8 79 -0.1 31.9
11:10 1018 30.06 847 25.01 3.3 37.9 79 0.1 32.1
11:15 1018 30.06 847 25.01 3.5 38.3 78 0 32
11:20 1018 30.06 847 25.01 3.6 38.5 79 0.2 32.4
11:25 1018 30.06 847 25.01 3.9 39.1 76 0 32
11:30 1018 30.06 847 25.01 4.1 39.3 77 0.4 32.8
11:35 1018 30.06 847 25.01 4.3 39.8 74 0.1 32.2
11:40 1018 30.06 847 25.01 4.3 39.8 73 -0.2 31.7
11:45 1018 30.06 847 25.01 4 39.2 73 -0.4 31.3
11:50 1018 30.06 847 25.01 3.9 39 73 -0.6 31
11:55 1018 30.06 847 25.01 4 39.2 73 -0.4 31.2
12:00 1018 30.06 847 25.01 4.6 40.3 71 -0.2 31.7
12:05 1018 30.06 847 25.01 4.9 40.8 72 0.2 32.4
12:10 1018 30.06 847 25.01 4.9 40.8 70 -0.1 31.9
12:15 1018 30.06 847 25.01 4.5 40.1 72 -0.2 31.7
12:20 1018 30.06 848 25.04 4.5 40 72 -0.1 31.8
12:25 1018 30.06 848 25.04 4.2 39.6 73 -0.2 31.6
12:30 1018 30.06 848 25.04 4.1 39.4 71 -0.7 30.7
12:35 1019 30.09 848 25.04 4 39.2 74 -0.2 31.6
12:40 1019 30.09 848 25.04 4 39.2 73 -0.4 31.3
12:45 1019 30.09 848 25.04 4.1 39.3 72 -0.5 31.1
12:50 1019 30.09 848 25.04 4.3 39.7 72 -0.4 31.4
12:55 1019 30.09 848 25.04 4.1 39.4 72 -0.5 31.1
13:00 1019 30.09 848 25.04 4.2 39.6 71 -0.6 30.9
13:05 1019 30.09 848 25.04 4.1 39.3 72 -0.5 31.2
13:10 1019 30.09 848 25.04 4 39.1 74 -0.3 31.5
13:15 1019 30.09 848 25.04 3.8 38.8 75 -0.3 31.4
13:20 1019 30.09 848 25.04 3.8 38.8 75 -0.1 31.7
13:25 1019 30.09 848 25.04 3.5 38.3 79 0.2 32.4
13:30 1019 30.09 848 25.04 3.3 38 79 0.1 32.1
13:35 1019 30.09 849 25.07 3.3 37.9 81 0.2 32.4
13:40 1019 30.09 849 25.07 3.3 37.9 82 0.5 33
13:45 1019 30.09 849 25.07 3.4 38.1 80 0.3 32.5
13:50 1019 30.09 849 25.07 3.5 38.3 79 0.3 32.5
13:55 1019 30.09 849 25.07 3.6 38.5 80 0.5 32.9
14:00 1020 30.12 849 25.07 3.6 38.5 79 0.3 32.5
14:05 1020 30.12 849 25.07 3.7 38.7 77 0.1 32.2
14:10 1020 30.12 849 25.07 3.8 38.8 78 0.3 32.5
14:15 1020 30.12 849 25.07 3.8 38.9 79 0.6 33.1
14:20 1020 30.12 849 25.07 4 39.2 78 0.5 33
14:25 1020 30.12 849 25.07 4 39.2 75 0.1 32.1
14:30 1020 30.12 849 25.07 3.9 39 78 0.4 32.8
14:35 1020 30.12 849 25.07 4 39.2 76 0.2 32.4
14:40 1020 30.12 849 25.07 4.2 39.5 75 0.2 32.4
14:45 1020 30.12 849 25.07 4.2 39.5 75 0.1 32.2
14:50 1020 30.12 849 25.07 4.4 39.9 72 -0.3 31.5
14:55 1020 30.12 849 25.07 4.8 40.7 71 -0.1 31.9
15:00 1020 30.12 849 25.07 5.2 41.3 68 -0.2 31.6
15:05 1020 30.12 849 25.07 5.4 41.8 68 0.1 32.2
15:10 1020 30.12 849 25.07 5.4 41.7 66 -0.4 31.2
15:15 1020 30.12 849 25.07 5 41 68 -0.4 31.2
15:20 1020 30.12 849 25.07 5.1 41.2 67 -0.6 31
15:25 1020 30.12 849 25.07 5.1 41.1 68 -0.3 31.5
15:30 1020 30.12 849 25.07 5.4 41.7 67 -0.2 31.7
15:35 1020 30.12 850 25.1 5.1 41.2 66 -0.7 30.7
15:40 1020 30.12 850 25.1 5.2 41.3 67 -0.5 31.1
15:45 1021 30.15 850 25.1 5.1 41.1 69 -0.2 31.7
15:50 1021 30.15 850 25.1 4.7 40.5 72 0 32.1
15:55 1021 30.15 850 25.1 4.5 40 76 0.6 33.2
16:00 1021 30.15 850 25.1 4.1 39.4 80 0.9 33.7
16:05 1021 30.15 850 25.1 3.8 38.9 82 1.1 33.9
16:10 1021 30.15 850 25.1 3.3 38 85 1.1 34
16:15 1021 30.15 850 25.1 3.2 37.7 86 1 33.8
16:20 1021 30.15 850 25.1 3.2 37.8 85 0.9 33.7
16:25 1021 30.15 850 25.1 3.2 37.7 86 1.1 34
16:30 1021 30.15 850 25.1 3.2 37.8 86 1.1 33.9
16:35 1021 30.15 851 25.13 3.2 37.7 85 0.9 33.7
16:40 1021 30.15 851 25.13 3.2 37.7 85 0.9 33.7
16:45 1021 30.15 851 25.13 3.2 37.7 86 1 33.8
16:50 1022 30.18 851 25.13 3.3 37.9 84 0.7 33.3
16:55 1022 30.18 851 25.13 3.2 37.7 85 0.8 33.5
17:00 1022 30.18 851 25.13 3.2 37.8 83 0.7 33.2
17:05 1022 30.18 851 25.13 3.1 37.6 84 0.7 33.2
17:10 1022 30.18 851 25.13 3.1 37.6 85 0.8 33.4
17:15 1022 30.18 851 25.13 3.1 37.6 84 0.6 33.1
17:20 1022 30.18 851 25.13 3.1 37.6 85 0.8 33.4
17:25 1022 30.18 851 25.13 3.2 37.8 84 0.9 33.6
17:30 1022 30.18 851 25.13 3.3 37.9 85 1 33.8
17:35 1022 30.18 851 25.13 3.3 37.9 85 1 33.8
17:40 1022 30.18 851 25.13 3.2 37.8 83 0.6 33.1
17:45 1022 30.18 851 25.13 3 37.3 83 0.4 32.7
17:50 1022 30.18 851 25.13 2.8 37.1 84 0.4 32.8
17:55 1022 30.18 851 25.13 2.9 37.2 83 0.3 32.6
18:00 1022 30.18 851 25.13 2.9 37.3 84 0.4 32.8
18:05 1022 30.18 852 25.16 3 37.4 84 0.6 33.1
18:10 1022 30.18 852 25.16 3 37.4 84 0.6 33
18:15 1022 30.18 852 25.16 3 37.4 82 0.3 32.5
18:20 1022 30.18 852 25.16 3 37.4 83 0.4 32.7
18:25 1022 30.18 852 25.16 3 37.3 83 0.3 32.5
18:30 1023 30.21 852 25.16 2.8 37 84 0.4 32.7
18:35 1023 30.21 852 25.16 2.7 36.9 83 0.2 32.4
18:40 1023 30.21 852 25.16 2.5 36.5 85 0.3 32.5
18:45 1023 30.21 852 25.16 2.5 36.5 86 0.3 32.6
18:50 1023 30.21 852 25.16 2.6 36.6 86 0.4 32.7
18:55 1023 30.21 852 25.16 2.4 36.4 87 0.4 32.8
19:00 1023 30.21 852 25.16 2.4 36.4 86 0.3 32.5
19:05 1023 30.21 852 25.16 2.3 36.2 85 0.1 32.2
19:10 1023 30.21 852 25.16 2.2 36 86 0.1 32.2
19:15 1023 30.21 852 25.16 2.2 35.9 87 0.2 32.4
19:20 1023 30.21 852 25.16 2.2 35.9 87 0.2 32.4
19:25 1023 30.21 852 25.16 2.1 35.7 88 0.3 32.6
19:30 1023 30.21 852 25.16 2 35.6 88 0.2 32.4
19:35 1023 30.21 852 25.16 2 35.5 88 0.2 32.4
19:40 1023 30.21 852 25.16 2 35.7 88 0.2 32.3
19:45 1023 30.21 852 25.16 2.1 35.7 87 0.1 32.3
19:50 1023 30.21 853 25.19 2 35.6 87 0.1 32.2
19:55 1024 30.24 853 25.19 2 35.5 87 0.1 32.1
20:00 1024 30.24 853 25.19 2 35.6 88 0.1 32.2
20:05 1024 30.24 853 25.19 1.9 35.5 88 0.2 32.3
20:10 1024 30.24 853 25.19 2 35.6 88 0.2 32.4
20:15 1024 30.24 853 25.19 2 35.5 89 0.3 32.5
20:20 1024 30.24 853 25.19 2 35.6 88 0.2 32.4
20:25 1024 30.24 853 25.19 2.1 35.7 88 0.3 32.6
20:30 1024 30.24 853 25.19 2.2 35.9 88 0.4 32.6
20:35 1024 30.24 853 25.19 2.2 36 88 0.5 32.9
20:40 1024 30.24 853 25.19 2.2 35.9 88 0.4 32.8
20:45 1024 30.24 853 25.19 2.1 35.7 89 0.4 32.7
20:50 1024 30.24 853 25.19 2 35.5 88 0.2 32.3
20:55 1024 30.24 854 25.22 1.9 35.4 89 0.3 32.5
21:00 1024 30.24 854 25.22 1.9 35.4 89 0.3 32.5
21:05 1024 30.24 854 25.22 1.9 35.3 89 0.3 32.5
21:10 1025 30.27 854 25.22 1.9 35.5 90 0.5 32.8
21:15 1025 30.27 854 25.22 1.8 35.3 90 0.4 32.7
21:20 1025 30.27 854 25.22 1.8 35.2 91 0.4 32.7
21:25 1025 30.27 854 25.22 1.8 35.2 92 0.5 33
21:30 1025 30.27 854 25.22 1.8 35.3 92 0.6 33.1
21:35 1025 30.27 854 25.22 1.8 35.3 92 0.6 33.1
21:40 1025 30.27 854 25.22 1.7 35.1 92 0.5 33
21:45 1025 30.27 854 25.22 1.6 34.8 92 0.5 32.8
21:50 1025 30.27 854 25.22 1.5 34.7 93 0.5 32.8
21:55 1025 30.27 854 25.22 1.6 34.9 93 0.5 32.9
22:00 1025 30.27 854 25.22 1.5 34.7 93 0.5 32.8
22:05 1025 30.27 854 25.22 1.5 34.7 93 0.5 32.8
22:10 1025 30.27 854 25.22 1.6 34.8 93 0.6 33
22:15 1025 30.27 854 25.22 1.8 35.2 93 0.8 33.4
22:20 1025 30.27 854 25.22 1.9 35.4 93 0.9 33.5
22:25 1025 30.27 854 25.22 2 35.6 92 0.9 33.5
22:30 1025 30.27 854 25.22 1.9 35.5 91 0.5 33
22:35 1025 30.27 854 25.22 2 35.6 89 0.3 32.6
22:40 1025 30.27 854 25.22 2.1 35.8 89 0.5 32.9
22:45 1025 30.27 854 25.22 2.2 35.9 88 0.4 32.7
22:50 1025 30.27 854 25.22 2.2 35.9 87 0.3 32.5
22:55 1025 30.27 854 25.22 2.1 35.9 87 0.2 32.3
23:00 1025 30.27 854 25.22 2.2 36 87 0.3 32.5
23:05 1025 30.27 854 25.22 2.3 36.1 86 0.2 32.3
23:10 1025 30.27 854 25.22 2.3 36.2 86 0.1 32.3
23:15 1025 30.27 854 25.22 2.3 36.2 86 0.3 32.5
23:20 1025 30.27 854 25.22 2.4 36.2 86 0.2 32.4
23:25 1025 30.27 854 25.22 2.4 36.3 86 0.3 32.6
23:30 1025 30.27 854 25.22 2.4 36.3 87 0.4 32.6
23:35 1025 30.27 854 25.22 2.2 36 87 0.2 32.4
23:40 1025 30.27 854 25.22 2.3 36.1 86 0.2 32.4
23:45 1025 30.27 854 25.22 2.3 36.2 86 0.3 32.5
23:50 1025 30.27 854 25.22 2.4 36.2 86 0.3 32.5
23:55 1025 30.27 854 25.22 2.3 36.2 85 0.1 32.2
24:00 1025 30.27 854 25.22 2.3 36.2 86 0.2 32.4